Time;durP1;ratioP1;P1;durP2;ratioP2;P2;SDS_P1;SDS_P2;PMS_P1;PMS_P2;Temp;Humidity;BMP_temperature;BMP_pressure;BME280_temperature;BME280_humidity;BME280_pressure;Samples;Min_cycle;Max_cycle;Signal;HPM_P1;HPM_P2
2021/05/13 00:06:04;;;;;;;7.38;2.88;;;15.90;44.00;;;;;;20911603;28;20060;-60
2021/05/13 00:16:06;;;;;;;1.33;0.60;;;15.90;45.30;;;;;;20911128;28;20131;-60
2021/05/13 00:26:08;;;;;;;1.42;0.60;;;15.80;45.50;;;;;;20910690;28;20056;-60
2021/05/13 00:36:09;;;;;;;2.80;0.70;;;15.70;45.90;;;;;;20908626;28;20053;-60
2021/05/13 00:46:11;;;;;;;3.20;0.80;;;15.70;45.90;;;;;;20916054;28;20076;-59
2021/05/13 00:56:13;;;;;;;1.52;0.68;;;15.40;46.10;;;;;;20924894;28;20045;-60
2021/05/13 01:06:15;;;;;;;3.13;0.90;;;15.20;47.00;;;;;;20924157;28;20132;-60
2021/05/13 01:26:47;;;;;;;2.55;0.80;;;15.10;47.90;;;;;;20831848;28;20084;-59
2021/05/13 01:36:49;;;;;;;1.33;0.73;;;14.90;48.30;;;;;;20830398;28;20137;-60
2021/05/13 01:46:51;;;;;;;3.03;1.13;;;14.80;48.30;;;;;;20829980;28;20045;-61
2021/05/13 01:56:52;;;;;;;2.80;1.00;;;14.70;48.40;;;;;;20851829;28;20072;-59
2021/05/13 02:06:53;;;;;;;2.40;0.90;;;14.70;48.60;;;;;;20920326;28;20140;-59
2021/05/13 02:16:54;;;;;;;2.42;1.02;;;14.80;48.80;;;;;;20918174;28;20084;-59
2021/05/13 02:26:56;;;;;;;1.55;0.70;;;14.70;49.30;;;;;;20917504;28;20136;-60
2021/05/13 02:36:57;;;;;;;2.05;0.80;;;14.70;48.80;;;;;;20917519;28;20143;-59
2021/05/13 02:46:58;;;;;;;3.03;1.02;;;14.70;48.60;;;;;;20915963;28;20476;-60
2021/05/13 02:56:59;;;;;;;1.58;0.70;;;14.50;48.40;;;;;;20915269;28;20084;-59
2021/05/13 03:07:01;;;;;;;2.45;1.00;;;14.40;48.90;;;;;;20914177;28;20083;-60
2021/05/13 03:17:03;;;;;;;2.55;1.05;;;14.40;49.30;;;;;;20913509;28;20076;-59
2021/05/13 03:27:14;;;;;;;2.70;1.15;;;14.40;49.50;;;;;;20912885;28;20084;-59
2021/05/13 03:37:15;;;;;;;8.27;2.15;;;14.40;49.80;;;;;;20912255;28;20501;-59
2021/05/13 03:47:16;;;;;;;5.20;1.10;;;14.40;50.00;;;;;;20911998;28;20458;-59
2021/05/13 03:57:18;;;;;;;3.78;1.10;;;14.20;50.10;;;;;;20911566;28;20133;-59
2021/05/13 04:07:19;;;;;;;4.97;1.40;;;14.20;50.20;;;;;;20911302;28;20085;-60
2021/05/13 04:17:20;;;;;;;2.55;1.10;;;14.10;50.60;;;;;;20910977;28;20099;-59
2021/05/13 04:27:21;;;;;;;3.10;1.05;;;14.00;50.80;;;;;;20927226;28;20512;-60
2021/05/13 04:37:23;;;;;;;4.85;1.30;;;14.00;50.90;;;;;;20926285;28;20041;-58
2021/05/13 04:57:38;;;;;;;2.55;1.35;;;13.80;51.10;;;;;;20924941;28;20059;-58
2021/05/13 05:07:39;;;;;;;5.07;1.95;;;13.70;51.40;;;;;;20925932;28;20048;-58
2021/05/13 05:17:40;;;;;;;3.08;1.08;;;13.70;51.50;;;;;;20922880;28;20060;-59
2021/05/13 05:27:41;;;;;;;5.30;1.20;;;13.70;51.10;;;;;;20922630;28;20057;-60
2021/05/13 05:37:43;;;;;;;5.97;1.92;;;13.60;51.20;;;;;;20920585;28;20489;-60
2021/05/13 05:47:45;;;;;;;4.57;2.03;;;13.70;51.20;;;;;;20921008;28;20056;-59
2021/05/13 05:57:46;;;;;;;10.52;2.03;;;13.20;52.60;;;;;;20921172;28;20406;-59
2021/05/13 06:07:47;;;;;;;6.60;1.88;;;13.20;52.80;;;;;;20919986;28;20060;-60
2021/05/13 06:17:48;;;;;;;3.47;1.10;;;13.40;52.20;;;;;;20918923;28;20052;-60
2021/05/13 06:27:50;;;;;;;2.20;1.20;;;13.70;50.30;;;;;;20918133;28;20057;-60
2021/05/13 06:37:52;;;;;;;3.22;1.58;;;14.00;49.10;;;;;;20918011;28;20056;-60
2021/05/13 06:47:53;;;;;;;2.65;1.00;;;14.40;48.50;;;;;;20915496;28;20081;-60
2021/05/13 06:57:54;;;;;;;2.33;1.10;;;14.80;46.80;;;;;;20915988;28;20052;-61
2021/05/13 07:07:56;;;;;;;3.85;1.02;;;15.20;45.70;;;;;;20916478;28;20559;-61
2021/05/13 07:17:57;;;;;;;5.30;1.10;;;15.80;44.00;;;;;;20915116;28;20171;-61
2021/05/13 07:27:59;;;;;;;3.05;1.20;;;16.70;42.20;;;;;;20914154;28;20492;-61
2021/05/13 07:38:00;;;;;;;3.00;0.90;;;17.40;40.50;;;;;;20913302;28;20071;-60
2021/05/13 07:48:03;;;;;;;6.13;1.23;;;18.00;39.00;;;;;;20911817;28;20044;-60
2021/05/13 07:58:05;;;;;;;6.30;1.30;;;17.90;39.10;;;;;;20910554;28;20123;-59
2021/05/13 08:08:07;;;;;;;6.03;2.47;;;17.90;39.80;;;;;;20910800;28;20045;-59
2021/05/13 08:18:08;;;;;;;8.90;1.80;;;18.00;39.50;;;;;;20910291;28;20088;-61
2021/05/13 08:28:09;;;;;;;4.18;1.40;;;18.00;39.70;;;;;;20910370;28;20107;-60
2021/05/13 08:38:11;;;;;;;3.58;1.20;;;18.20;40.00;;;;;;20910234;28;20465;-60
2021/05/13 08:48:12;;;;;;;5.82;1.67;;;18.60;39.60;;;;;;20910194;28;20056;-61
2021/05/13 08:58:13;;;;;;;3.05;1.10;;;19.00;38.40;;;;;;20909688;28;20513;-61
2021/05/13 09:08:20;;;;;;;7.90;2.42;;;19.40;37.20;;;;;;20929490;28;20056;-61
2021/05/13 09:18:33;;;;;;;2.80;1.17;;;19.90;36.90;;;;;;20923354;28;20045;-62
2021/05/13 09:28:35;;;;;;;6.07;1.02;;;20.60;35.80;;;;;;20895799;28;20057;-62
2021/05/13 09:38:37;;;;;;;2.10;0.68;;;20.70;37.00;;;;;;20890432;28;20163;-60
2021/05/13 09:48:40;;;;;;;10.18;3.00;;;20.90;35.00;;;;;;20920567;28;20453;-60
2021/05/13 09:58:41;;;;;;;5.13;1.10;;;20.90;35.00;;;;;;20920220;28;20057;-59
2021/05/13 10:08:43;;;;;;;2.00;1.08;;;21.00;35.20;;;;;;20919335;28;20045;-59
2021/05/13 10:18:47;;;;;;;4.15;1.45;;;21.10;35.40;;;;;;20917784;28;20056;-60
2021/05/13 10:28:48;;;;;;;5.78;1.73;;;21.20;35.90;;;;;;20915778;28;20069;-60
2021/05/13 10:39:08;;;;;;;4.40;1.70;;;21.20;36.40;;;;;;20916807;28;20056;-61
2021/05/13 10:49:16;;;;;;;4.10;2.38;;;21.10;36.90;;;;;;20914548;28;20128;-63
2021/05/13 10:59:17;;;;;;;3.40;1.30;;;21.10;37.50;;;;;;20915434;28;20553;-60
2021/05/13 11:09:37;;;;;;;4.50;1.70;;;21.30;37.50;;;;;;20914269;28;20078;-61
2021/05/13 11:19:38;;;;;;;3.75;1.20;;;21.60;37.50;;;;;;20913193;28;20089;-60
2021/05/13 11:29:48;;;;;;;3.58;1.48;;;21.30;37.20;;;;;;20911979;28;20048;-62
2021/05/13 11:39:49;;;;;;;3.17;1.30;;;21.40;37.00;;;;;;20911830;28;20052;-60
2021/05/13 11:49:50;;;;;;;3.47;1.00;;;21.20;36.80;;;;;;20927297;28;20402;-61
2021/05/13 11:59:52;;;;;;;5.15;1.30;;;21.20;37.20;;;;;;20911202;28;20084;-61
2021/05/13 12:09:53;;;;;;;5.47;1.45;;;21.10;37.70;;;;;;20912856;28;20075;-71
2021/05/13 12:19:55;;;;;;;3.42;1.20;;;21.20;37.80;;;;;;20899623;28;20049;-72
2021/05/13 12:29:56;;;;;;;4.93;2.42;;;20.90;38.40;;;;;;20887513;28;20080;-61
2021/05/13 12:40:08;;;;;;;3.97;1.20;;;20.90;38.80;;;;;;20830635;28;20081;-60
2021/05/13 12:50:10;;;;;;;2.53;1.05;;;21.10;37.40;;;;;;20843862;28;20046;-60
2021/05/13 13:00:13;;;;;;;2.42;1.27;;;21.00;36.40;;;;;;20841896;28;20053;-61
2021/05/13 13:10:42;;;;;;;6.90;1.15;;;21.10;35.80;;;;;;20841359;28;20069;-61
2021/05/13 13:20:44;;;;;;;6.22;1.40;;;21.40;35.30;;;;;;20839928;28;20084;-62
2021/05/13 13:30:49;;;;;;;3.40;1.23;;;21.60;35.50;;;;;;20839519;28;20081;-61
2021/05/13 13:40:54;;;;;;;5.07;1.45;;;21.70;35.50;;;;;;20838792;28;20085;-60
2021/05/13 13:50:59;;;;;;;5.68;1.58;;;;;;;;;;20836673;28;20073;-62
2021/05/13 14:01:02;;;;;;;2.42;1.10;;;23.30;33.10;;;;;;20836735;28;20057;-62
2021/05/13 14:11:05;;;;;;;4.05;1.10;;;22.50;35.50;;;;;;20836040;28;20531;-61
2021/05/13 14:21:07;;;;;;;2.00;1.10;;;22.70;36.40;;;;;;20834874;28;20140;-61
2021/05/13 14:31:08;;;;;;;2.90;1.17;;;22.70;37.50;;;;;;20832935;28;20080;-61
2021/05/13 14:41:09;;;;;;;5.20;1.33;;;22.70;38.00;;;;;;20833469;28;20107;-60
2021/05/13 14:51:11;;;;;;;1.88;1.08;;;23.20;37.90;;;;;;20833834;28;20045;-60
2021/05/13 15:01:13;;;;;;;1.85;0.90;;;22.60;39.10;;;;;;20847220;28;20183;-61
2021/05/13 15:11:14;;;;;;;2.27;0.93;;;22.80;38.70;;;;;;20832638;28;20064;-61
2021/05/13 15:21:15;;;;;;;1.80;0.93;;;23.00;39.20;;;;;;20846519;28;20057;-62
2021/05/13 15:31:17;;;;;;;4.53;1.02;;;23.00;39.80;;;;;;20845209;28;20092;-61
2021/05/13 15:41:18;;;;;;;5.80;1.30;;;23.00;39.90;;;;;;20829598;28;20132;-55
2021/05/13 15:51:20;;;;;;;3.38;1.20;;;22.80;40.30;;;;;;20829086;28;20049;-61
2021/05/13 16:01:21;;;;;;;6.93;1.70;;;22.60;40.90;;;;;;20838928;28;20501;-60
2021/05/13 16:11:27;;;;;;;8.13;2.50;;;22.50;41.60;;;;;;20872512;28;20173;-63
2021/05/13 16:21:29;;;;;;;4.60;1.30;;;22.40;41.80;;;;;;20837711;28;20054;-63
2021/05/13 16:31:30;;;;;;;4.65;1.38;;;22.60;41.60;;;;;;20843024;28;20049;-69
2021/05/13 16:41:32;;;;;;;5.55;2.20;;;22.50;42.30;;;;;;20841837;28;20050;-66
2021/05/13 16:51:33;;;;;;;4.33;1.43;;;22.30;42.90;;;;;;20847021;28;20048;-64
2021/05/13 17:01:34;;;;;;;5.60;1.83;;;22.00;43.80;;;;;;20875607;28;20054;-63
2021/05/13 17:11:36;;;;;;;4.93;1.52;;;21.90;45.00;;;;;;20854076;28;20158;-62
2021/05/13 17:21:37;;;;;;;3.75;1.65;;;21.80;45.20;;;;;;20855960;28;20045;-57
2021/05/13 17:31:38;;;;;;;6.75;1.88;;;22.10;45.20;;;;;;20918444;28;20144;-57
2021/05/13 17:41:40;;;;;;;5.38;1.42;;;21.60;45.60;;;;;;20920013;28;20145;-60
2021/05/13 17:51:42;;;;;;;3.70;1.50;;;21.60;46.10;;;;;;20917751;28;20080;-59
2021/05/13 18:01:44;;;;;;;6.70;1.63;;;21.50;46.50;;;;;;20917776;28;20048;-58
2021/05/13 18:11:45;;;;;;;4.68;1.75;;;21.40;46.90;;;;;;20918422;28;20049;-58
2021/05/13 18:21:47;;;;;;;5.68;1.90;;;21.20;47.70;;;;;;20916887;28;20099;-62
2021/05/13 18:31:48;;;;;;;6.15;2.22;;;21.00;48.10;;;;;;20915468;28;20494;-57
2021/05/13 18:41:49;;;;;;;4.50;1.95;;;20.70;48.80;;;;;;20915262;28;20083;-57
2021/05/13 18:51:51;;;;;;;4.93;1.65;;;20.70;49.40;;;;;;20915221;28;20635;-57
2021/05/13 19:01:53;;;;;;;5.15;1.45;;;20.20;50.80;;;;;;20914481;28;20072;-58
2021/05/13 19:11:54;;;;;;;8.27;2.10;;;19.70;52.30;;;;;;20913962;28;20045;-56
2021/05/13 19:21:55;;;;;;;11.05;2.28;;;19.20;53.30;;;;;;20915354;28;20056;-59
2021/05/13 19:42:01;;;;;;;6.28;1.80;;;18.90;54.50;;;;;;20913111;28;20477;-62
2021/05/13 19:52:02;;;;;;;5.63;1.58;;;18.70;54.80;;;;;;20911200;28;20502;-62
2021/05/13 20:02:40;;;;;;;6.25;1.98;;;18.60;55.20;;;;;;20909703;28;20060;-61
2021/05/13 20:12:31;;;;;;;5.35;1.75;;;18.40;55.90;;;;;;20910437;28;20520;-61
2021/05/13 20:22:35;;;;;;;4.55;1.95;;;18.20;56.80;;;;;;20910639;28;20085;-60
2021/05/13 20:32:36;;;;;;;34.95;22.35;;;18.20;57.10;;;;;;20910060;28;20134;-62
2021/05/13 20:42:38;;;;;;;5.75;2.08;;;18.00;58.30;;;;;;20909906;28;20056;-63
2021/05/13 21:02:52;;;;;;;5.57;1.87;;;17.90;59.10;;;;;;20914899;28;20445;-61
2021/05/13 21:32:56;;;;;;;5.45;1.77;;;17.40;61.60;;;;;;20921914;28;20154;-60
2021/05/13 21:42:59;;;;;;;6.50;1.83;;;17.20;62.30;;;;;;20920226;28;20060;-64
2021/05/13 21:53:00;;;;;;;5.75;2.70;;;17.20;62.70;;;;;;20921751;28;20057;-60
2021/05/13 22:03:01;;;;;;;4.50;1.25;;;17.10;61.30;;;;;;20920842;28;20420;-65
2021/05/13 22:13:04;;;;;;;5.32;1.40;;;17.10;54.30;;;;;;20917520;28;20041;-65
2021/05/13 22:23:12;;;;;;;5.20;1.92;;;17.10;51.40;;;;;;20918340;28;20053;-61
2021/05/13 22:33:14;;;;;;;4.22;1.35;;;17.00;50.20;;;;;;20915919;28;20057;-61
2021/05/13 22:43:15;;;;;;;5.47;1.40;;;16.90;48.90;;;;;;20917077;28;20052;-60
2021/05/13 22:53:19;;;;;;;3.70;1.42;;;17.00;47.40;;;;;;20916512;28;20052;-61
2021/05/13 23:03:21;;;;;;;6.15;1.50;;;16.90;46.60;;;;;;20915499;28;20094;-62
2021/05/13 23:13:25;;;;;;;4.13;1.13;;;16.90;46.40;;;;;;20914835;28;20049;-60
2021/05/13 23:23:26;;;;;;;4.35;1.40;;;16.90;45.70;;;;;;20913029;28;20133;-62
2021/05/13 23:33:28;;;;;;;5.82;1.30;;;16.70;45.60;;;;;;20913711;28;20413;-61
2021/05/13 23:43:29;;;;;;;5.57;1.20;;;16.60;46.10;;;;;;20913812;28;20091;-61
2021/05/13 23:53:32;;;;;;;3.22;0.98;;;16.50;45.60;;;;;;20912654;28;20072;-60
